sensor_id;sensor_type;location;lat;lon;timestamp;P1;durP1;ratioP1;P2;durP2;ratioP2
19969;SDS011;10146;47.754;9.566;2023-08-07T00:00:21;4.03;;;2.20;;
19969;SDS011;10146;47.754;9.566;2023-08-07T00:02:47;3.40;;;2.28;;
19969;SDS011;10146;47.754;9.566;2023-08-07T00:05:13;4.78;;;1.90;;
19969;SDS011;10146;47.754;9.566;2023-08-07T00:07:39;3.85;;;1.75;;
19969;SDS011;10146;47.754;9.566;2023-08-07T00:10:04;2.90;;;1.80;;
19969;SDS011;10146;47.754;9.566;2023-08-07T00:12:31;5.30;;;2.35;;
19969;SDS011;10146;47.754;9.566;2023-08-07T00:14:57;3.67;;;1.50;;
19969;SDS011;10146;47.754;9.566;2023-08-07T00:17:22;2.13;;;1.27;;
19969;SDS011;10146;47.754;9.566;2023-08-07T00:19:48;1.80;;;1.30;;
19969;SDS011;10146;47.754;9.566;2023-08-07T00:22:14;2.63;;;1.40;;
19969;SDS011;10146;47.754;9.566;2023-08-07T00:24:39;4.32;;;1.60;;
19969;SDS011;10146;47.754;9.566;2023-08-07T00:27:05;1.70;;;1.38;;
19969;SDS011;10146;47.754;9.566;2023-08-07T00:29:31;2.90;;;1.40;;
19969;SDS011;10146;47.754;9.566;2023-08-07T00:31:57;2.83;;;1.42;;
19969;SDS011;10146;47.754;9.566;2023-08-07T00:34:23;2.38;;;1.58;;
19969;SDS011;10146;47.754;9.566;2023-08-07T00:36:49;2.33;;;1.40;;
19969;SDS011;10146;47.754;9.566;2023-08-07T00:39:15;2.72;;;1.58;;
19969;SDS011;10146;47.754;9.566;2023-08-07T00:41:41;3.33;;;1.60;;
19969;SDS011;10146;47.754;9.566;2023-08-07T00:44:06;2.22;;;1.60;;
19969;SDS011;10146;47.754;9.566;2023-08-07T00:46:32;4.20;;;1.50;;
19969;SDS011;10146;47.754;9.566;2023-08-07T00:48:57;1.85;;;1.60;;
19969;SDS011;10146;47.754;9.566;2023-08-07T00:51:23;3.90;;;1.70;;
19969;SDS011;10146;47.754;9.566;2023-08-07T00:53:49;3.28;;;1.52;;
19969;SDS011;10146;47.754;9.566;2023-08-07T00:56:15;4.43;;;1.35;;
19969;SDS011;10146;47.754;9.566;2023-08-07T00:58:41;2.60;;;1.63;;
19969;SDS011;10146;47.754;9.566;2023-08-07T01:01:07;3.67;;;1.92;;
19969;SDS011;10146;47.754;9.566;2023-08-07T01:03:32;3.60;;;1.70;;
19969;SDS011;10146;47.754;9.566;2023-08-07T01:05:58;3.65;;;1.80;;
19969;SDS011;10146;47.754;9.566;2023-08-07T01:08:24;2.05;;;1.50;;
19969;SDS011;10146;47.754;9.566;2023-08-07T01:13:45;3.65;;;1.75;;
19969;SDS011;10146;47.754;9.566;2023-08-07T01:16:15;3.05;;;1.50;;
19969;SDS011;10146;47.754;9.566;2023-08-07T01:18:46;2.28;;;1.77;;
19969;SDS011;10146;47.754;9.566;2023-08-07T01:21:17;3.55;;;1.50;;
19969;SDS011;10146;47.754;9.566;2023-08-07T01:23:44;3.05;;;1.75;;
19969;SDS011;10146;47.754;9.566;2023-08-07T01:26:13;2.67;;;1.42;;
19969;SDS011;10146;47.754;9.566;2023-08-07T01:28:42;3.92;;;1.90;;
19969;SDS011;10146;47.754;9.566;2023-08-07T01:31:14;3.35;;;1.73;;
19969;SDS011;10146;47.754;9.566;2023-08-07T01:36:33;3.97;;;1.80;;
19969;SDS011;10146;47.754;9.566;2023-08-07T01:38:59;3.17;;;1.63;;
19969;SDS011;10146;47.754;9.566;2023-08-07T01:41:27;2.80;;;1.80;;
19969;SDS011;10146;47.754;9.566;2023-08-07T01:43:54;2.95;;;1.75;;
19969;SDS011;10146;47.754;9.566;2023-08-07T01:46:20;1.92;;;1.58;;
19969;SDS011;10146;47.754;9.566;2023-08-07T01:48:46;2.35;;;1.80;;
19969;SDS011;10146;47.754;9.566;2023-08-07T01:51:11;4.03;;;1.38;;
19969;SDS011;10146;47.754;9.566;2023-08-07T01:53:37;4.13;;;1.80;;
19969;SDS011;10146;47.754;9.566;2023-08-07T01:56:03;3.40;;;1.65;;
19969;SDS011;10146;47.754;9.566;2023-08-07T01:58:28;3.53;;;1.75;;
19969;SDS011;10146;47.754;9.566;2023-08-07T02:00:54;3.58;;;1.80;;
19969;SDS011;10146;47.754;9.566;2023-08-07T02:03:19;1.75;;;1.60;;
19969;SDS011;10146;47.754;9.566;2023-08-07T02:05:45;1.92;;;1.65;;
19969;SDS011;10146;47.754;9.566;2023-08-07T02:08:12;5.35;;;1.88;;
19969;SDS011;10146;47.754;9.566;2023-08-07T02:10:37;3.22;;;1.60;;
19969;SDS011;10146;47.754;9.566;2023-08-07T02:13:03;3.42;;;2.10;;
19969;SDS011;10146;47.754;9.566;2023-08-07T02:15:29;2.15;;;1.90;;
19969;SDS011;10146;47.754;9.566;2023-08-07T02:17:54;2.65;;;1.55;;
19969;SDS011;10146;47.754;9.566;2023-08-07T02:20:20;4.68;;;1.98;;
19969;SDS011;10146;47.754;9.566;2023-08-07T02:22:45;3.45;;;1.83;;
19969;SDS011;10146;47.754;9.566;2023-08-07T02:25:11;3.47;;;2.10;;
19969;SDS011;10146;47.754;9.566;2023-08-07T02:27:37;3.72;;;2.05;;
19969;SDS011;10146;47.754;9.566;2023-08-07T02:30:02;3.88;;;1.80;;
19969;SDS011;10146;47.754;9.566;2023-08-07T02:32:29;1.95;;;1.52;;
19969;SDS011;10146;47.754;9.566;2023-08-07T02:34:54;2.72;;;1.92;;
19969;SDS011;10146;47.754;9.566;2023-08-07T02:37:20;2.92;;;2.13;;
19969;SDS011;10146;47.754;9.566;2023-08-07T02:39:46;2.70;;;2.08;;
19969;SDS011;10146;47.754;9.566;2023-08-07T02:42:11;3.45;;;1.80;;
19969;SDS011;10146;47.754;9.566;2023-08-07T02:44:37;2.72;;;2.00;;
19969;SDS011;10146;47.754;9.566;2023-08-07T02:47:03;2.97;;;1.90;;
19969;SDS011;10146;47.754;9.566;2023-08-07T02:49:29;3.50;;;1.83;;
19969;SDS011;10146;47.754;9.566;2023-08-07T02:51:54;2.97;;;1.92;;
19969;SDS011;10146;47.754;9.566;2023-08-07T02:54:20;2.90;;;1.80;;
19969;SDS011;10146;47.754;9.566;2023-08-07T02:56:45;2.60;;;1.92;;
19969;SDS011;10146;47.754;9.566;2023-08-07T02:59:11;3.42;;;2.17;;
19969;SDS011;10146;47.754;9.566;2023-08-07T03:01:37;2.75;;;1.80;;
19969;SDS011;10146;47.754;9.566;2023-08-07T03:04:02;2.70;;;1.88;;
19969;SDS011;10146;47.754;9.566;2023-08-07T03:06:28;3.55;;;1.90;;
19969;SDS011;10146;47.754;9.566;2023-08-07T03:08:53;4.00;;;2.40;;
19969;SDS011;10146;47.754;9.566;2023-08-07T03:11:19;2.22;;;1.90;;
19969;SDS011;10146;47.754;9.566;2023-08-07T03:13:45;2.10;;;1.75;;
19969;SDS011;10146;47.754;9.566;2023-08-07T03:16:10;2.58;;;2.10;;
19969;SDS011;10146;47.754;9.566;2023-08-07T03:18:36;2.45;;;2.17;;
19969;SDS011;10146;47.754;9.566;2023-08-07T03:21:02;4.75;;;2.10;;
19969;SDS011;10146;47.754;9.566;2023-08-07T03:23:28;2.55;;;2.17;;
19969;SDS011;10146;47.754;9.566;2023-08-07T03:26:07;3.00;;;2.40;;
19969;SDS011;10146;47.754;9.566;2023-08-07T03:28:34;2.25;;;2.03;;
19969;SDS011;10146;47.754;9.566;2023-08-07T03:31:00;4.50;;;2.42;;
19969;SDS011;10146;47.754;9.566;2023-08-07T03:33:26;4.10;;;2.10;;
19969;SDS011;10146;47.754;9.566;2023-08-07T03:35:51;2.33;;;2.13;;
19969;SDS011;10146;47.754;9.566;2023-08-07T03:38:17;4.32;;;2.20;;
19969;SDS011;10146;47.754;9.566;2023-08-07T03:40:43;3.78;;;2.28;;
19969;SDS011;10146;47.754;9.566;2023-08-07T03:43:09;3.95;;;2.00;;
19969;SDS011;10146;47.754;9.566;2023-08-07T03:45:34;4.55;;;2.30;;
19969;SDS011;10146;47.754;9.566;2023-08-07T03:48:00;3.72;;;2.00;;
19969;SDS011;10146;47.754;9.566;2023-08-07T03:50:26;2.67;;;2.00;;
19969;SDS011;10146;47.754;9.566;2023-08-07T03:52:51;4.75;;;2.33;;
19969;SDS011;10146;47.754;9.566;2023-08-07T03:55:17;5.57;;;2.20;;
19969;SDS011;10146;47.754;9.566;2023-08-07T03:57:43;4.30;;;2.40;;
19969;SDS011;10146;47.754;9.566;2023-08-07T04:00:09;3.00;;;2.30;;
19969;SDS011;10146;47.754;9.566;2023-08-07T04:02:35;3.63;;;2.25;;
19969;SDS011;10146;47.754;9.566;2023-08-07T04:05:01;3.58;;;2.38;;
19969;SDS011;10146;47.754;9.566;2023-08-07T04:07:26;4.55;;;2.38;;
19969;SDS011;10146;47.754;9.566;2023-08-07T04:09:52;3.80;;;2.35;;
19969;SDS011;10146;47.754;9.566;2023-08-07T04:12:17;4.55;;;2.80;;
19969;SDS011;10146;47.754;9.566;2023-08-07T04:14:43;4.53;;;2.88;;
19969;SDS011;10146;47.754;9.566;2023-08-07T04:17:09;3.35;;;2.50;;
19969;SDS011;10146;47.754;9.566;2023-08-07T04:19:34;5.22;;;2.58;;
19969;SDS011;10146;47.754;9.566;2023-08-07T04:22:00;4.72;;;2.70;;
19969;SDS011;10146;47.754;9.566;2023-08-07T04:24:25;3.15;;;2.20;;
19969;SDS011;10146;47.754;9.566;2023-08-07T04:26:51;5.82;;;2.65;;
19969;SDS011;10146;47.754;9.566;2023-08-07T04:29:16;5.00;;;2.72;;
19969;SDS011;10146;47.754;9.566;2023-08-07T04:31:42;3.42;;;2.42;;
19969;SDS011;10146;47.754;9.566;2023-08-07T04:34:07;3.97;;;2.78;;
19969;SDS011;10146;47.754;9.566;2023-08-07T04:36:33;3.25;;;2.55;;
19969;SDS011;10146;47.754;9.566;2023-08-07T04:38:59;4.13;;;2.50;;
19969;SDS011;10146;47.754;9.566;2023-08-07T04:41:25;3.00;;;2.40;;
19969;SDS011;10146;47.754;9.566;2023-08-07T04:43:50;3.50;;;2.60;;
19969;SDS011;10146;47.754;9.566;2023-08-07T04:46:16;4.60;;;2.78;;
19969;SDS011;10146;47.754;9.566;2023-08-07T04:48:41;4.70;;;2.60;;
19969;SDS011;10146;47.754;9.566;2023-08-07T04:51:07;3.67;;;2.58;;
19969;SDS011;10146;47.754;9.566;2023-08-07T04:53:33;2.65;;;2.20;;
19969;SDS011;10146;47.754;9.566;2023-08-07T04:55:59;3.35;;;2.47;;
19969;SDS011;10146;47.754;9.566;2023-08-07T04:58:25;6.72;;;2.55;;
19969;SDS011;10146;47.754;9.566;2023-08-07T05:00:56;3.40;;;2.45;;
19969;SDS011;10146;47.754;9.566;2023-08-07T05:03:22;7.72;;;2.35;;
19969;SDS011;10146;47.754;9.566;2023-08-07T05:05:48;2.80;;;2.00;;
19969;SDS011;10146;47.754;9.566;2023-08-07T05:08:14;3.70;;;1.98;;
19969;SDS011;10146;47.754;9.566;2023-08-07T05:10:40;2.20;;;1.90;;
19969;SDS011;10146;47.754;9.566;2023-08-07T05:13:05;3.13;;;2.05;;
19969;SDS011;10146;47.754;9.566;2023-08-07T05:15:31;3.70;;;2.42;;
19969;SDS011;10146;47.754;9.566;2023-08-07T05:17:57;3.22;;;2.53;;
19969;SDS011;10146;47.754;9.566;2023-08-07T05:20:22;2.92;;;2.25;;
19969;SDS011;10146;47.754;9.566;2023-08-07T05:22:48;4.07;;;2.30;;
19969;SDS011;10146;47.754;9.566;2023-08-07T05:25:14;5.53;;;2.38;;
19969;SDS011;10146;47.754;9.566;2023-08-07T05:27:41;2.70;;;2.10;;
19969;SDS011;10146;47.754;9.566;2023-08-07T05:30:07;3.45;;;2.50;;
19969;SDS011;10146;47.754;9.566;2023-08-07T05:32:33;3.60;;;2.40;;
19969;SDS011;10146;47.754;9.566;2023-08-07T05:35:02;4.78;;;2.20;;
19969;SDS011;10146;47.754;9.566;2023-08-07T05:37:29;4.32;;;2.17;;
19969;SDS011;10146;47.754;9.566;2023-08-07T05:39:56;4.13;;;2.25;;
19969;SDS011;10146;47.754;9.566;2023-08-07T05:42:22;2.53;;;2.08;;
19969;SDS011;10146;47.754;9.566;2023-08-07T05:44:47;3.03;;;2.53;;
19969;SDS011;10146;47.754;9.566;2023-08-07T05:47:13;3.50;;;2.30;;
19969;SDS011;10146;47.754;9.566;2023-08-07T05:49:39;6.70;;;2.60;;
19969;SDS011;10146;47.754;9.566;2023-08-07T05:52:05;4.82;;;2.30;;
19969;SDS011;10146;47.754;9.566;2023-08-07T05:54:31;2.90;;;2.30;;
19969;SDS011;10146;47.754;9.566;2023-08-07T05:56:56;3.88;;;2.70;;
19969;SDS011;10146;47.754;9.566;2023-08-07T05:59:22;3.25;;;2.67;;
19969;SDS011;10146;47.754;9.566;2023-08-07T06:01:48;4.47;;;2.60;;
19969;SDS011;10146;47.754;9.566;2023-08-07T06:04:13;4.50;;;2.88;;
19969;SDS011;10146;47.754;9.566;2023-08-07T06:06:39;5.97;;;3.10;;
19969;SDS011;10146;47.754;9.566;2023-08-07T06:09:05;4.93;;;2.75;;
19969;SDS011;10146;47.754;9.566;2023-08-07T06:11:31;5.35;;;2.47;;
19969;SDS011;10146;47.754;9.566;2023-08-07T06:13:58;4.45;;;2.42;;
19969;SDS011;10146;47.754;9.566;2023-08-07T06:16:23;6.80;;;2.75;;
19969;SDS011;10146;47.754;9.566;2023-08-07T06:18:49;3.47;;;2.22;;
19969;SDS011;10146;47.754;9.566;2023-08-07T06:21:15;3.50;;;2.25;;
19969;SDS011;10146;47.754;9.566;2023-08-07T06:23:41;3.47;;;2.58;;
19969;SDS011;10146;47.754;9.566;2023-08-07T06:26:07;3.65;;;2.90;;
19969;SDS011;10146;47.754;9.566;2023-08-07T06:28:33;4.47;;;2.83;;
19969;SDS011;10146;47.754;9.566;2023-08-07T06:31:05;5.72;;;2.17;;
19969;SDS011;10146;47.754;9.566;2023-08-07T06:33:32;3.72;;;2.10;;
19969;SDS011;10146;47.754;9.566;2023-08-07T06:35:59;3.15;;;2.05;;
19969;SDS011;10146;47.754;9.566;2023-08-07T06:38:25;2.53;;;2.08;;
19969;SDS011;10146;47.754;9.566;2023-08-07T06:40:51;3.67;;;2.10;;
19969;SDS011;10146;47.754;9.566;2023-08-07T06:43:16;3.55;;;2.20;;
19969;SDS011;10146;47.754;9.566;2023-08-07T06:45:42;4.15;;;2.38;;
19969;SDS011;10146;47.754;9.566;2023-08-07T06:48:08;2.83;;;1.80;;
19969;SDS011;10146;47.754;9.566;2023-08-07T06:50:34;4.55;;;2.10;;
19969;SDS011;10146;47.754;9.566;2023-08-07T06:53:00;2.67;;;1.85;;
19969;SDS011;10146;47.754;9.566;2023-08-07T06:55:25;3.45;;;2.15;;
19969;SDS011;10146;47.754;9.566;2023-08-07T06:57:51;2.28;;;2.08;;
19969;SDS011;10146;47.754;9.566;2023-08-07T07:00:17;2.60;;;1.80;;
19969;SDS011;10146;47.754;9.566;2023-08-07T07:02:42;2.50;;;2.20;;
19969;SDS011;10146;47.754;9.566;2023-08-07T07:05:08;2.10;;;1.90;;
19969;SDS011;10146;47.754;9.566;2023-08-07T07:07:34;2.33;;;1.73;;
19969;SDS011;10146;47.754;9.566;2023-08-07T07:10:00;2.90;;;2.05;;
19969;SDS011;10146;47.754;9.566;2023-08-07T07:12:28;3.33;;;2.42;;
19969;SDS011;10146;47.754;9.566;2023-08-07T07:14:54;3.67;;;1.90;;
19969;SDS011;10146;47.754;9.566;2023-08-07T07:17:19;5.43;;;2.22;;
19969;SDS011;10146;47.754;9.566;2023-08-07T07:19:45;2.75;;;1.90;;
19969;SDS011;10146;47.754;9.566;2023-08-07T07:22:11;2.83;;;1.73;;
19969;SDS011;10146;47.754;9.566;2023-08-07T07:24:37;3.15;;;1.75;;
19969;SDS011;10146;47.754;9.566;2023-08-07T07:27:03;1.75;;;1.65;;
19969;SDS011;10146;47.754;9.566;2023-08-07T07:29:28;3.33;;;1.70;;
19969;SDS011;10146;47.754;9.566;2023-08-07T07:31:54;1.95;;;1.48;;
19969;SDS011;10146;47.754;9.566;2023-08-07T07:34:20;3.17;;;1.63;;
19969;SDS011;10146;47.754;9.566;2023-08-07T07:36:46;2.42;;;1.88;;
19969;SDS011;10146;47.754;9.566;2023-08-07T07:39:11;2.10;;;1.60;;
19969;SDS011;10146;47.754;9.566;2023-08-07T07:41:37;2.33;;;1.83;;
19969;SDS011;10146;47.754;9.566;2023-08-07T07:44:03;2.28;;;1.73;;
19969;SDS011;10146;47.754;9.566;2023-08-07T07:46:28;2.85;;;1.92;;
19969;SDS011;10146;47.754;9.566;2023-08-07T07:48:56;2.13;;;1.60;;
19969;SDS011;10146;47.754;9.566;2023-08-07T07:51:22;3.70;;;1.70;;
19969;SDS011;10146;47.754;9.566;2023-08-07T07:53:48;2.05;;;1.33;;
19969;SDS011;10146;47.754;9.566;2023-08-07T07:56:14;3.03;;;1.67;;
19969;SDS011;10146;47.754;9.566;2023-08-07T07:58:39;1.50;;;1.40;;
19969;SDS011;10146;47.754;9.566;2023-08-07T08:01:06;2.33;;;1.48;;
19969;SDS011;10146;47.754;9.566;2023-08-07T08:03:32;1.90;;;1.67;;
19969;SDS011;10146;47.754;9.566;2023-08-07T08:05:58;1.60;;;1.50;;
19969;SDS011;10146;47.754;9.566;2023-08-07T08:08:24;2.72;;;1.65;;
19969;SDS011;10146;47.754;9.566;2023-08-07T08:10:49;2.10;;;1.60;;
19969;SDS011;10146;47.754;9.566;2023-08-07T08:13:16;2.33;;;1.30;;
19969;SDS011;10146;47.754;9.566;2023-08-07T08:15:42;2.53;;;1.50;;
19969;SDS011;10146;47.754;9.566;2023-08-07T08:18:09;1.52;;;1.20;;
19969;SDS011;10146;47.754;9.566;2023-08-07T08:20:34;2.80;;;1.55;;
19969;SDS011;10146;47.754;9.566;2023-08-07T08:23:01;1.83;;;1.30;;
19969;SDS011;10146;47.754;9.566;2023-08-07T08:25:26;2.65;;;1.48;;
19969;SDS011;10146;47.754;9.566;2023-08-07T08:27:52;2.45;;;1.58;;
19969;SDS011;10146;47.754;9.566;2023-08-07T08:30:17;2.70;;;1.60;;
19969;SDS011;10146;47.754;9.566;2023-08-07T08:32:43;3.42;;;1.95;;
19969;SDS011;10146;47.754;9.566;2023-08-07T08:35:09;2.55;;;1.20;;
19969;SDS011;10146;47.754;9.566;2023-08-07T08:37:34;2.20;;;1.42;;
19969;SDS011;10146;47.754;9.566;2023-08-07T08:40:00;1.63;;;1.10;;
19969;SDS011;10146;47.754;9.566;2023-08-07T08:42:26;1.20;;;1.05;;
19969;SDS011;10146;47.754;9.566;2023-08-07T08:44:52;1.70;;;1.02;;
19969;SDS011;10146;47.754;9.566;2023-08-07T08:47:20;2.33;;;1.10;;
19969;SDS011;10146;47.754;9.566;2023-08-07T08:49:47;1.15;;;1.05;;
19969;SDS011;10146;47.754;9.566;2023-08-07T08:52:19;2.45;;;1.40;;
19969;SDS011;10146;47.754;9.566;2023-08-07T08:54:46;2.85;;;1.30;;
19969;SDS011;10146;47.754;9.566;2023-08-07T08:57:13;1.48;;;1.38;;
19969;SDS011;10146;47.754;9.566;2023-08-07T08:59:40;1.77;;;1.33;;
19969;SDS011;10146;47.754;9.566;2023-08-07T09:02:07;1.75;;;1.23;;
19969;SDS011;10146;47.754;9.566;2023-08-07T09:04:33;2.97;;;1.13;;
19969;SDS011;10146;47.754;9.566;2023-08-07T09:06:59;3.08;;;1.20;;
19969;SDS011;10146;47.754;9.566;2023-08-07T09:09:26;1.48;;;1.25;;
19969;SDS011;10146;47.754;9.566;2023-08-07T09:11:53;1.70;;;1.08;;
19969;SDS011;10146;47.754;9.566;2023-08-07T09:14:22;1.55;;;1.17;;
19969;SDS011;10146;47.754;9.566;2023-08-07T09:16:51;1.67;;;1.20;;
19969;SDS011;10146;47.754;9.566;2023-08-07T09:19:18;2.25;;;1.20;;
19969;SDS011;10146;47.754;9.566;2023-08-07T09:21:44;1.85;;;1.42;;
19969;SDS011;10146;47.754;9.566;2023-08-07T09:24:10;1.17;;;1.00;;
19969;SDS011;10146;47.754;9.566;2023-08-07T09:26:36;3.83;;;1.77;;
19969;SDS011;10146;47.754;9.566;2023-08-07T09:29:03;1.48;;;1.10;;
19969;SDS011;10146;47.754;9.566;2023-08-07T09:31:29;3.03;;;1.23;;
19969;SDS011;10146;47.754;9.566;2023-08-07T09:34:02;1.13;;;1.00;;
19969;SDS011;10146;47.754;9.566;2023-08-07T09:36:31;1.58;;;1.30;;
19969;SDS011;10146;47.754;9.566;2023-08-07T09:38:59;2.53;;;1.30;;
19969;SDS011;10146;47.754;9.566;2023-08-07T09:41:26;2.13;;;1.27;;
19969;SDS011;10146;47.754;9.566;2023-08-07T09:43:53;1.73;;;1.13;;
19969;SDS011;10146;47.754;9.566;2023-08-07T09:46:19;1.67;;;1.25;;
19969;SDS011;10146;47.754;9.566;2023-08-07T09:48:45;1.35;;;1.05;;
19969;SDS011;10146;47.754;9.566;2023-08-07T09:51:10;1.65;;;1.20;;
19969;SDS011;10146;47.754;9.566;2023-08-07T09:53:36;2.72;;;1.50;;
19969;SDS011;10146;47.754;9.566;2023-08-07T09:56:02;2.90;;;1.30;;
19969;SDS011;10146;47.754;9.566;2023-08-07T09:58:28;2.00;;;1.80;;
19969;SDS011;10146;47.754;9.566;2023-08-07T10:00:55;1.58;;;1.20;;
19969;SDS011;10146;47.754;9.566;2023-08-07T10:03:24;2.55;;;1.48;;
19969;SDS011;10146;47.754;9.566;2023-08-07T10:05:51;3.40;;;1.60;;
19969;SDS011;10146;47.754;9.566;2023-08-07T10:08:17;1.35;;;1.25;;
19969;SDS011;10146;47.754;9.566;2023-08-07T10:10:43;1.75;;;1.60;;
19969;SDS011;10146;47.754;9.566;2023-08-07T10:13:12;1.30;;;1.20;;
19969;SDS011;10146;47.754;9.566;2023-08-07T10:15:38;1.25;;;1.13;;
19969;SDS011;10146;47.754;9.566;2023-08-07T10:18:06;1.60;;;1.20;;
19969;SDS011;10146;47.754;9.566;2023-08-07T10:20:32;1.35;;;1.13;;
19969;SDS011;10146;47.754;9.566;2023-08-07T10:23:06;1.02;;;0.90;;
19969;SDS011;10146;47.754;9.566;2023-08-07T10:25:33;3.05;;;1.20;;
19969;SDS011;10146;47.754;9.566;2023-08-07T10:28:02;1.60;;;1.13;;
19969;SDS011;10146;47.754;9.566;2023-08-07T10:30:30;1.42;;;1.15;;
19969;SDS011;10146;47.754;9.566;2023-08-07T10:32:58;3.10;;;1.70;;
19969;SDS011;10146;47.754;9.566;2023-08-07T10:37:51;2.35;;;1.35;;
19969;SDS011;10146;47.754;9.566;2023-08-07T10:40:19;1.77;;;1.33;;
19969;SDS011;10146;47.754;9.566;2023-08-07T10:45:25;1.80;;;0.80;;
19969;SDS011;10146;47.754;9.566;2023-08-07T10:48:01;1.08;;;0.98;;
19969;SDS011;10146;47.754;9.566;2023-08-07T10:50:34;1.75;;;1.00;;
19969;SDS011;10146;47.754;9.566;2023-08-07T10:53:11;1.05;;;0.80;;
19969;SDS011;10146;47.754;9.566;2023-08-07T10:56:07;1.33;;;0.70;;
19969;SDS011;10146;47.754;9.566;2023-08-07T10:58:35;1.25;;;0.70;;
19969;SDS011;10146;47.754;9.566;2023-08-07T11:03:59;1.75;;;0.80;;
19969;SDS011;10146;47.754;9.566;2023-08-07T11:06:26;1.88;;;0.82;;
19969;SDS011;10146;47.754;9.566;2023-08-07T11:08:56;0.95;;;0.88;;
19969;SDS011;10146;47.754;9.566;2023-08-07T11:11:22;0.88;;;0.75;;
19969;SDS011;10146;47.754;9.566;2023-08-07T11:13:48;0.85;;;0.85;;
19969;SDS011;10146;47.754;9.566;2023-08-07T11:16:14;1.75;;;1.08;;
19969;SDS011;10146;47.754;9.566;2023-08-07T11:18:40;1.42;;;1.30;;
19969;SDS011;10146;47.754;9.566;2023-08-07T11:21:07;1.55;;;1.15;;
19969;SDS011;10146;47.754;9.566;2023-08-07T11:23:35;2.33;;;1.00;;
19969;SDS011;10146;47.754;9.566;2023-08-07T11:26:01;2.13;;;1.27;;
19969;SDS011;10146;47.754;9.566;2023-08-07T11:28:28;1.73;;;1.10;;
19969;SDS011;10146;47.754;9.566;2023-08-07T11:30:54;1.60;;;0.90;;
19969;SDS011;10146;47.754;9.566;2023-08-07T11:33:24;2.40;;;1.10;;
19969;SDS011;10146;47.754;9.566;2023-08-07T11:35:51;2.25;;;1.10;;
19969;SDS011;10146;47.754;9.566;2023-08-07T11:38:30;2.60;;;1.17;;
19969;SDS011;10146;47.754;9.566;2023-08-07T11:41:01;1.45;;;1.00;;
19969;SDS011;10146;47.754;9.566;2023-08-07T11:43:28;2.42;;;1.38;;
19969;SDS011;10146;47.754;9.566;2023-08-07T11:45:58;2.53;;;1.00;;
19969;SDS011;10146;47.754;9.566;2023-08-07T11:48:34;1.58;;;1.00;;
19969;SDS011;10146;47.754;9.566;2023-08-07T11:51:01;2.63;;;1.30;;
19969;SDS011;10146;47.754;9.566;2023-08-07T11:53:29;3.60;;;1.50;;
19969;SDS011;10146;47.754;9.566;2023-08-07T11:56:00;2.83;;;1.52;;
19969;SDS011;10146;47.754;9.566;2023-08-07T11:58:33;2.22;;;1.33;;
19969;SDS011;10146;47.754;9.566;2023-08-07T12:01:03;1.35;;;1.10;;
19969;SDS011;10146;47.754;9.566;2023-08-07T12:03:35;2.35;;;1.50;;
19969;SDS011;10146;47.754;9.566;2023-08-07T12:06:05;1.60;;;1.20;;
19969;SDS011;10146;47.754;9.566;2023-08-07T12:08:35;1.25;;;1.00;;
19969;SDS011;10146;47.754;9.566;2023-08-07T12:11:08;1.20;;;1.10;;
19969;SDS011;10146;47.754;9.566;2023-08-07T12:13:38;1.02;;;0.90;;
19969;SDS011;10146;47.754;9.566;2023-08-07T12:16:05;0.80;;;0.80;;
19969;SDS011;10146;47.754;9.566;2023-08-07T12:18:32;1.38;;;0.98;;
19969;SDS011;10146;47.754;9.566;2023-08-07T12:21:02;1.13;;;0.90;;
19969;SDS011;10146;47.754;9.566;2023-08-07T12:23:35;0.77;;;0.60;;
19969;SDS011;10146;47.754;9.566;2023-08-07T12:26:02;1.60;;;0.60;;
19969;SDS011;10146;47.754;9.566;2023-08-07T12:28:31;0.70;;;0.70;;
19969;SDS011;10146;47.754;9.566;2023-08-07T12:30:56;2.13;;;0.65;;
19969;SDS011;10146;47.754;9.566;2023-08-07T12:33:22;1.17;;;0.68;;
19969;SDS011;10146;47.754;9.566;2023-08-07T12:35:48;0.55;;;0.52;;
19969;SDS011;10146;47.754;9.566;2023-08-07T12:38:13;0.95;;;0.60;;
19969;SDS011;10146;47.754;9.566;2023-08-07T12:40:40;1.83;;;0.90;;
19969;SDS011;10146;47.754;9.566;2023-08-07T12:43:06;0.73;;;0.73;;
19969;SDS011;10146;47.754;9.566;2023-08-07T12:45:32;1.15;;;0.88;;
19969;SDS011;10146;47.754;9.566;2023-08-07T12:47:58;0.82;;;0.82;;
19969;SDS011;10146;47.754;9.566;2023-08-07T12:50:24;2.83;;;0.88;;
19969;SDS011;10146;47.754;9.566;2023-08-07T12:52:50;0.70;;;0.70;;
19969;SDS011;10146;47.754;9.566;2023-08-07T12:55:16;1.20;;;1.00;;
19969;SDS011;10146;47.754;9.566;2023-08-07T12:57:42;0.70;;;0.70;;
19969;SDS011;10146;47.754;9.566;2023-08-07T13:00:09;1.02;;;0.95;;
19969;SDS011;10146;47.754;9.566;2023-08-07T13:02:38;1.52;;;0.93;;
19969;SDS011;10146;47.754;9.566;2023-08-07T13:05:05;1.08;;;0.80;;
19969;SDS011;10146;47.754;9.566;2023-08-07T13:07:31;1.45;;;1.15;;
19969;SDS011;10146;47.754;9.566;2023-08-07T13:09:56;1.75;;;0.80;;
19969;SDS011;10146;47.754;9.566;2023-08-07T13:12:22;1.27;;;0.98;;
19969;SDS011;10146;47.754;9.566;2023-08-07T13:14:48;1.80;;;0.80;;
19969;SDS011;10146;47.754;9.566;2023-08-07T13:17:14;1.20;;;0.80;;
19969;SDS011;10146;47.754;9.566;2023-08-07T13:19:39;1.10;;;0.80;;
19969;SDS011;10146;47.754;9.566;2023-08-07T13:22:05;2.17;;;0.90;;
19969;SDS011;10146;47.754;9.566;2023-08-07T13:24:32;0.98;;;0.93;;
19969;SDS011;10146;47.754;9.566;2023-08-07T13:26:57;1.73;;;1.15;;
19969;SDS011;10146;47.754;9.566;2023-08-07T13:29:23;3.13;;;0.73;;
19969;SDS011;10146;47.754;9.566;2023-08-07T13:31:50;1.17;;;0.80;;
19969;SDS011;10146;47.754;9.566;2023-08-07T13:34:15;0.75;;;0.75;;
19969;SDS011;10146;47.754;9.566;2023-08-07T13:36:41;1.15;;;0.80;;
19969;SDS011;10146;47.754;9.566;2023-08-07T13:39:06;1.73;;;0.80;;
19969;SDS011;10146;47.754;9.566;2023-08-07T13:41:33;1.20;;;1.00;;
19969;SDS011;10146;47.754;9.566;2023-08-07T13:43:59;1.95;;;0.98;;
19969;SDS011;10146;47.754;9.566;2023-08-07T13:46:25;1.20;;;0.95;;
19969;SDS011;10146;47.754;9.566;2023-08-07T13:48:51;0.90;;;0.90;;
19969;SDS011;10146;47.754;9.566;2023-08-07T13:51:17;0.70;;;0.70;;
19969;SDS011;10146;47.754;9.566;2023-08-07T13:53:43;1.42;;;1.13;;
19969;SDS011;10146;47.754;9.566;2023-08-07T13:56:09;1.92;;;0.82;;
19969;SDS011;10146;47.754;9.566;2023-08-07T13:58:37;0.60;;;0.60;;
19969;SDS011;10146;47.754;9.566;2023-08-07T14:01:03;0.80;;;0.77;;
19969;SDS011;10146;47.754;9.566;2023-08-07T14:03:29;1.13;;;1.02;;
19969;SDS011;10146;47.754;9.566;2023-08-07T14:05:55;1.00;;;0.90;;
19969;SDS011;10146;47.754;9.566;2023-08-07T14:08:20;1.35;;;0.88;;
19969;SDS011;10146;47.754;9.566;2023-08-07T14:10:46;1.42;;;0.90;;
19969;SDS011;10146;47.754;9.566;2023-08-07T14:13:12;1.15;;;1.02;;
19969;SDS011;10146;47.754;9.566;2023-08-07T14:15:38;0.90;;;0.70;;
19969;SDS011;10146;47.754;9.566;2023-08-07T14:18:03;0.80;;;0.80;;
19969;SDS011;10146;47.754;9.566;2023-08-07T14:20:29;1.20;;;0.80;;
19969;SDS011;10146;47.754;9.566;2023-08-07T14:22:54;1.92;;;0.95;;
19969;SDS011;10146;47.754;9.566;2023-08-07T14:25:20;1.23;;;0.90;;
19969;SDS011;10146;47.754;9.566;2023-08-07T14:27:47;1.92;;;0.70;;
19969;SDS011;10146;47.754;9.566;2023-08-07T14:30:13;0.73;;;0.70;;
19969;SDS011;10146;47.754;9.566;2023-08-07T14:32:39;1.30;;;0.77;;
19969;SDS011;10146;47.754;9.566;2023-08-07T14:35:04;1.15;;;1.00;;
19969;SDS011;10146;47.754;9.566;2023-08-07T14:37:30;1.10;;;1.00;;
19969;SDS011;10146;47.754;9.566;2023-08-07T14:39:56;2.65;;;0.98;;
19969;SDS011;10146;47.754;9.566;2023-08-07T14:42:22;0.85;;;0.70;;
19969;SDS011;10146;47.754;9.566;2023-08-07T14:44:48;1.13;;;0.90;;
19969;SDS011;10146;47.754;9.566;2023-08-07T14:47:14;1.65;;;0.98;;
19969;SDS011;10146;47.754;9.566;2023-08-07T14:49:39;1.00;;;0.70;;
19969;SDS011;10146;47.754;9.566;2023-08-07T14:52:05;1.77;;;0.65;;
19969;SDS011;10146;47.754;9.566;2023-08-07T14:54:32;1.10;;;0.75;;
19969;SDS011;10146;47.754;9.566;2023-08-07T14:56:58;1.95;;;0.88;;